createdAt,value
2022-08-17T00:00:34.472Z,6.53
2022-08-17T00:03:26.453Z,7.63
2022-08-17T00:06:12.140Z,7.83
2022-08-17T00:09:05.696Z,8.57
2022-08-17T00:11:38.818Z,7.27
2022-08-17T00:14:19.637Z,7.53
2022-08-17T00:16:57.443Z,9.50
2022-08-17T00:19:27.661Z,8.60
2022-08-17T00:22:35.207Z,6.00
2022-08-17T00:24:51.505Z,6.20
2022-08-17T00:27:20.205Z,5.87
2022-08-17T00:29:48.666Z,7.00
2022-08-17T00:33:15.479Z,6.80
2022-08-17T00:35:08.997Z,5.73
2022-08-17T00:37:37.483Z,9.10
2022-08-17T00:40:07.149Z,9.43
2022-08-17T00:42:35.795Z,8.73
2022-08-17T00:45:05.558Z,8.50
2022-08-17T00:47:34.197Z,7.93
2022-08-17T00:50:02.926Z,10.70
2022-08-17T00:52:39.099Z,10.07
2022-08-17T00:55:09.171Z,7.67
2022-08-17T00:57:45.136Z,10.43
2022-08-17T01:00:21.431Z,11.70
2022-08-17T01:02:50.267Z,10.63
2022-08-17T01:05:21.990Z,6.67
2022-08-17T01:07:51.438Z,6.27
2022-08-17T01:10:59.578Z,6.93
2022-08-17T01:13:14.612Z,7.60
2022-08-17T01:15:49.146Z,6.03
2022-08-17T01:18:17.770Z,7.10
2022-08-17T01:20:53.013Z,6.30
2022-08-17T01:23:25.043Z,6.27
2022-08-17T01:25:58.018Z,6.43
2022-08-17T01:28:33.352Z,7.53
2022-08-17T01:31:19.507Z,6.20
2022-08-17T01:33:47.960Z,5.93
2022-08-17T01:36:16.452Z,5.80
2022-08-17T01:38:44.822Z,7.00
2022-08-17T01:41:16.898Z,6.70
2022-08-17T01:44:01.660Z,5.77
2022-08-17T01:46:35.610Z,6.30
2022-08-17T01:49:09.154Z,6.03
2022-08-17T01:51:37.796Z,6.73
2022-08-17T01:54:12.971Z,6.80
2022-08-17T01:56:47.818Z,7.73
2022-08-17T01:59:18.632Z,6.83
2022-08-17T02:01:47.322Z,6.87
2022-08-17T02:04:16.096Z,6.67
2022-08-17T02:06:52.661Z,5.63
2022-08-17T02:09:29.791Z,6.33
2022-08-17T02:12:37.820Z,8.07
2022-08-17T02:14:52.288Z,5.90
2022-08-17T02:17:20.679Z,6.30
2022-08-17T02:19:49.120Z,5.60
2022-08-17T02:22:18.306Z,7.77
2022-08-17T02:25:00.058Z,7.10
2022-08-17T02:27:30.420Z,6.17
2022-08-17T02:29:58.865Z,6.57
2022-08-17T02:32:28.778Z,6.70
2022-08-17T02:34:59.688Z,8.50
2022-08-17T02:37:30.173Z,5.97
2022-08-17T02:39:59.482Z,8.20
2022-08-17T02:42:42.241Z,5.57
2022-08-17T02:45:19.165Z,5.67
2022-08-17T02:47:47.589Z,7.47
2022-08-17T02:50:18.297Z,6.30
2022-08-17T02:52:51.504Z,9.20
2022-08-17T02:55:38.779Z,6.37
2022-08-17T02:58:07.754Z,6.63
2022-08-17T03:00:41.346Z,5.50
2022-08-17T03:03:13.532Z,6.73
2022-08-17T03:05:42.521Z,6.80
2022-08-17T03:08:13.353Z,7.50
2022-08-17T03:10:42.567Z,5.20
2022-08-17T03:13:13.068Z,9.33
2022-08-17T03:15:43.849Z,5.50
2022-08-17T03:18:19.316Z,5.67
2022-08-17T03:20:58.146Z,5.90
2022-08-17T03:23:27.905Z,6.53
2022-08-17T03:25:58.759Z,8.37
2022-08-17T03:28:28.259Z,5.93
2022-08-17T03:30:56.775Z,7.33
2022-08-17T03:33:25.236Z,5.80
2022-08-17T03:35:54.003Z,6.17
2022-08-17T03:38:23.310Z,5.80
2022-08-17T03:40:56.237Z,6.03
2022-08-17T03:43:28.688Z,7.47
2022-08-17T03:46:28.660Z,7.53
2022-08-17T03:49:21.637Z,6.17
2022-08-17T03:52:07.461Z,6.10
2022-08-17T03:54:53.445Z,5.60
2022-08-17T03:57:21.858Z,5.50
2022-08-17T03:59:50.853Z,5.80
2022-08-17T04:02:23.358Z,6.03
2022-08-17T04:04:52.502Z,6.37
2022-08-17T04:07:23.420Z,6.70
2022-08-17T04:09:51.870Z,10.90
2022-08-17T04:12:23.345Z,6.33
2022-08-17T04:14:54.643Z,6.97
2022-08-17T04:17:29.920Z,6.30
2022-08-17T04:19:59.086Z,7.27
2022-08-17T04:22:32.790Z,6.03
2022-08-17T04:25:27.386Z,5.53
2022-08-17T04:27:56.848Z,7.03
2022-08-17T04:30:25.734Z,6.80
2022-08-17T04:33:11.863Z,5.87
2022-08-17T04:35:47.592Z,5.97
2022-08-17T04:38:19.517Z,5.37
2022-08-17T04:41:05.792Z,5.20
2022-08-17T04:43:37.000Z,9.67
2022-08-17T04:46:12.965Z,4.83
2022-08-17T04:48:46.292Z,4.80
2022-08-17T04:51:31.828Z,6.03
2022-08-17T04:54:14.373Z,7.40
2022-08-17T04:56:43.516Z,4.93
2022-08-17T04:59:18.851Z,7.03
2022-08-17T05:01:49.990Z,7.63
2022-08-17T05:04:34.929Z,5.13
2022-08-17T05:07:04.758Z,7.13
2022-08-17T05:09:33.615Z,5.70
2022-08-17T05:12:03.334Z,5.13
2022-08-17T05:14:33.582Z,7.73
2022-08-17T05:17:07.152Z,7.47
2022-08-17T05:19:39.935Z,6.63
2022-08-17T05:22:08.769Z,11.80
2022-08-17T05:24:42.739Z,5.53
2022-08-17T05:27:15.077Z,11.80
2022-08-17T05:29:47.367Z,8.90
2022-08-17T05:32:38.550Z,9.50
2022-08-17T05:35:04.906Z,6.43
2022-08-17T05:37:33.478Z,4.70
2022-08-17T05:40:02.034Z,6.87
2022-08-17T05:42:30.612Z,5.40
2022-08-17T05:44:59.498Z,10.37
2022-08-17T05:47:28.353Z,6.70
2022-08-17T05:49:56.943Z,6.00
2022-08-17T05:53:05.007Z,11.23
2022-08-17T05:55:49.865Z,7.67
2022-08-17T05:59:02.129Z,9.00
2022-08-17T06:02:23.972Z,8.03
2022-08-17T06:05:16.687Z,7.83
2022-08-17T06:08:13.999Z,5.53
2022-08-17T06:10:46.599Z,5.73
2022-08-17T06:13:19.846Z,7.77
2022-08-17T06:16:33.270Z,8.87
2022-08-17T06:19:12.105Z,6.90
2022-08-17T06:21:45.921Z,9.10
2022-08-17T06:24:44.418Z,10.17
2022-08-17T06:27:38.576Z,9.70
2022-08-17T06:30:16.873Z,6.30
2022-08-17T06:32:48.429Z,6.07
2022-08-17T06:35:35.164Z,8.83
2022-08-17T06:38:37.157Z,9.80
2022-08-17T06:41:41.812Z,7.60
2022-08-17T06:44:50.063Z,6.13
2022-08-17T06:47:28.465Z,7.60
2022-08-17T06:50:19.707Z,7.93
2022-08-17T06:53:08.823Z,7.53
2022-08-17T06:55:48.606Z,6.60
2022-08-17T06:58:23.035Z,6.03
2022-08-17T07:01:01.088Z,7.27
2022-08-17T07:04:11.931Z,7.00
2022-08-17T07:06:55.162Z,5.83
2022-08-17T07:09:36.017Z,5.60
2022-08-17T07:12:17.052Z,8.33
2022-08-17T07:14:53.076Z,6.63
2022-08-17T07:17:36.931Z,5.07
2022-08-17T07:20:22.716Z,4.97
2022-08-17T07:23:17.627Z,5.13
2022-08-17T07:25:46.150Z,5.43
2022-08-17T07:28:17.187Z,8.47
2022-08-17T07:30:55.216Z,4.93
2022-08-17T07:33:25.836Z,4.77
2022-08-17T07:35:54.517Z,5.13
2022-08-17T07:38:28.549Z,4.70
2022-08-17T07:40:57.628Z,7.87
2022-08-17T07:43:49.975Z,9.70
2022-08-17T07:46:53.296Z,6.10
2022-08-17T07:49:37.551Z,6.73
2022-08-17T07:52:50.417Z,4.77
2022-08-17T07:55:35.029Z,4.63
2022-08-17T07:58:03.622Z,3.93
2022-08-17T08:00:33.700Z,4.80
2022-08-17T08:03:27.149Z,4.20
2022-08-17T08:06:02.126Z,3.80
2022-08-17T08:08:42.816Z,5.80
2022-08-17T08:11:16.265Z,8.43
2022-08-17T08:13:46.060Z,6.00
2022-08-17T08:16:21.303Z,6.17
2022-08-17T08:18:56.886Z,3.77
2022-08-17T08:21:51.433Z,4.10
2022-08-17T08:24:45.683Z,5.00
2022-08-17T08:27:48.756Z,4.57
2022-08-17T08:30:21.564Z,4.10
2022-08-17T08:33:08.648Z,3.80
2022-08-17T08:35:56.514Z,8.32
2022-08-17T08:38:36.402Z,3.65
2022-08-17T08:41:46.833Z,5.13
2022-08-17T08:45:00.616Z,6.57
2022-08-17T08:47:51.115Z,4.72
2022-08-17T08:50:37.005Z,3.95
2022-08-17T08:53:39.680Z,9.40
2022-08-17T08:56:25.525Z,5.25
2022-08-17T08:58:59.488Z,8.32
2022-08-17T09:02:14.154Z,5.85
2022-08-17T09:05:32.580Z,7.30
2022-08-17T09:08:22.230Z,6.07
2022-08-17T09:11:05.180Z,4.95
2022-08-17T09:13:54.783Z,9.82
2022-08-17T09:16:51.330Z,7.32
2022-08-17T09:19:50.856Z,6.03
2022-08-17T09:22:19.273Z,5.90
2022-08-17T09:25:08.140Z,3.88
2022-08-17T09:27:52.347Z,5.88
2022-08-17T09:30:21.964Z,8.38
2022-08-17T09:32:58.811Z,5.03
2022-08-17T09:35:37.982Z,7.72
2022-08-17T09:38:50.233Z,6.75
2022-08-17T09:41:30.462Z,5.10
2022-08-17T09:44:24.136Z,4.72
2022-08-17T09:47:02.691Z,5.15
2022-08-17T09:49:43.805Z,4.15
2022-08-17T09:52:17.861Z,4.50
2022-08-17T09:54:47.471Z,4.68
2022-08-17T09:57:32.452Z,6.40
2022-08-17T10:00:09.836Z,4.90
2022-08-17T10:03:09.939Z,4.28
2022-08-17T10:06:08.384Z,4.13
2022-08-17T10:09:08.201Z,4.30
2022-08-17T10:12:21.423Z,4.38
2022-08-17T10:14:55.013Z,4.85
2022-08-17T10:17:47.577Z,4.47
2022-08-17T10:20:38.794Z,3.58
2022-08-17T10:23:42.803Z,3.90
2022-08-17T10:26:54.176Z,3.30
2022-08-17T10:29:54.724Z,5.78
2022-08-17T10:32:28.046Z,3.47
2022-08-17T10:35:17.214Z,7.60
2022-08-17T10:38:27.426Z,4.22
2022-08-17T10:41:40.817Z,4.00
2022-08-17T10:44:38.236Z,3.80
2022-08-17T10:47:16.328Z,6.28
2022-08-17T10:49:52.228Z,4.25
2022-08-17T10:52:30.529Z,4.70
2022-08-17T10:55:17.836Z,3.85
2022-08-17T10:57:50.747Z,3.70
2022-08-17T11:00:26.951Z,3.90
2022-08-17T11:02:57.488Z,5.15
2022-08-17T11:05:53.889Z,6.57
2022-08-17T11:08:31.869Z,3.25
2022-08-17T11:11:47.823Z,6.13
2022-08-17T11:14:30.793Z,5.35
2022-08-17T11:17:32.113Z,4.60
2022-08-17T11:20:47.651Z,7.47
2022-08-17T11:23:42.883Z,6.63
2022-08-17T11:26:25.987Z,4.55
2022-08-17T11:29:01.400Z,5.82
2022-08-17T11:31:39.990Z,6.15
2022-08-17T11:34:26.498Z,4.30
2022-08-17T11:37:29.076Z,7.72
2022-08-17T11:40:07.542Z,5.32
2022-08-17T11:43:07.599Z,4.30
2022-08-17T11:45:53.908Z,8.25
2022-08-17T11:49:23.189Z,3.55
2022-08-17T11:52:04.233Z,3.15
2022-08-17T11:54:33.688Z,4.30
2022-08-17T11:57:27.718Z,4.05
2022-08-17T11:59:56.053Z,5.50
2022-08-17T12:02:31.681Z,4.07
2022-08-17T12:05:13.202Z,3.50
2022-08-17T12:08:18.545Z,4.10
2022-08-17T12:11:03.499Z,3.30
2022-08-17T12:13:39.918Z,4.07
2022-08-17T12:16:10.038Z,3.35
2022-08-17T12:18:42.124Z,3.30
2022-08-17T12:21:22.382Z,5.10
2022-08-17T12:24:18.699Z,3.45
2022-08-17T12:27:01.233Z,4.20
2022-08-17T12:29:38.364Z,4.78
2022-08-17T12:32:08.653Z,4.22
2022-08-17T12:34:42.158Z,3.35
2022-08-17T12:37:32.280Z,2.70
2022-08-17T12:40:09.522Z,4.00
2022-08-17T12:42:41.521Z,2.53
2022-08-17T12:45:39.494Z,2.90
2022-08-17T12:48:13.211Z,2.78
2022-08-17T12:50:47.290Z,2.72
2022-08-17T12:53:35.215Z,2.40
2022-08-17T12:56:09.408Z,2.92
2022-08-17T12:58:53.425Z,2.90
2022-08-17T13:01:23.379Z,2.90
2022-08-17T13:03:54.995Z,2.97
2022-08-17T13:06:37.291Z,2.70
2022-08-17T13:09:39.982Z,2.10
2022-08-17T13:12:09.491Z,2.22
2022-08-17T13:14:37.675Z,2.88
2022-08-17T13:17:11.038Z,2.70
2022-08-17T13:19:51.261Z,2.72
2022-08-17T13:22:25.095Z,2.40
2022-08-17T13:24:58.572Z,2.55
2022-08-17T13:27:29.717Z,3.33
2022-08-17T13:30:09.313Z,6.40
2022-08-17T13:32:48.309Z,3.33
2022-08-17T13:35:40.930Z,2.38
2022-08-17T13:38:15.190Z,4.40
2022-08-17T13:40:50.435Z,2.78
2022-08-17T13:43:45.647Z,2.58
2022-08-17T13:46:27.946Z,2.50
2022-08-17T13:49:01.709Z,2.47
2022-08-17T13:51:44.202Z,3.95
2022-08-17T13:54:33.055Z,3.35
2022-08-17T13:57:04.324Z,2.60
2022-08-17T14:00:10.982Z,2.28
2022-08-17T14:02:39.188Z,3.53
2022-08-17T14:05:07.400Z,2.72
2022-08-17T14:07:39.838Z,3.67
2022-08-17T14:10:17.297Z,2.70
2022-08-17T14:12:47.747Z,2.47
2022-08-17T14:15:20.753Z,3.05
2022-08-17T14:17:50.517Z,2.58
2022-08-17T14:20:22.410Z,3.17
2022-08-17T14:22:55.678Z,2.58
2022-08-17T14:25:30.131Z,3.15
2022-08-17T14:27:59.219Z,2.65
2022-08-17T14:30:29.894Z,4.97
2022-08-17T14:32:59.573Z,3.45
2022-08-17T14:35:29.716Z,3.00
2022-08-17T14:37:58.523Z,3.05
2022-08-17T14:40:27.466Z,4.10
2022-08-17T14:42:57.940Z,3.25
2022-08-17T14:45:29.980Z,2.70
2022-08-17T14:48:05.692Z,2.75
2022-08-17T14:50:35.925Z,3.35
2022-08-17T14:53:06.438Z,4.82
2022-08-17T14:55:35.520Z,3.78
2022-08-17T14:58:04.039Z,2.78
2022-08-17T15:00:32.806Z,3.38
2022-08-17T15:03:03.193Z,3.03
2022-08-17T15:05:36.728Z,2.58
2022-08-17T15:08:06.175Z,4.05
2022-08-17T15:10:34.448Z,2.63
2022-08-17T15:13:03.039Z,4.20
2022-08-17T15:15:32.102Z,2.78
2022-08-17T15:18:01.198Z,4.95
2022-08-17T15:20:31.224Z,3.88
2022-08-17T15:23:00.080Z,4.30
2022-08-17T15:25:32.760Z,5.80
2022-08-17T15:28:02.312Z,2.70
2022-08-17T15:30:31.955Z,2.65
2022-08-17T15:33:01.972Z,2.47
2022-08-17T15:35:34.143Z,3.75
2022-08-17T15:38:11.625Z,5.43
2022-08-17T15:40:48.426Z,3.05
2022-08-17T15:43:27.581Z,5.18
2022-08-17T15:46:21.912Z,3.53
2022-08-17T15:48:54.838Z,3.20
2022-08-17T15:51:33.192Z,4.15
2022-08-17T15:54:18.881Z,4.07
2022-08-17T15:56:50.870Z,4.05
2022-08-17T15:59:19.527Z,2.30
2022-08-17T16:03:15.145Z,4.70
2022-08-17T16:04:39.635Z,4.35
2022-08-17T16:07:12.521Z,3.28
2022-08-17T16:09:40.796Z,2.42
2022-08-17T16:12:21.908Z,4.63
2022-08-17T16:14:53.279Z,4.30
2022-08-17T16:17:39.514Z,4.72
2022-08-17T16:20:20.698Z,6.45
2022-08-17T16:22:51.045Z,2.28
2022-08-17T16:25:50.317Z,3.17
2022-08-17T16:28:17.330Z,2.65
2022-08-17T16:30:45.936Z,5.90
2022-08-17T16:33:15.335Z,2.60
2022-08-17T16:35:43.986Z,3.50
2022-08-17T16:38:12.774Z,4.57
2022-08-17T16:40:42.463Z,2.47
2022-08-17T16:43:12.059Z,2.30
2022-08-17T16:45:42.332Z,3.15
2022-08-17T16:48:12.028Z,3.22
2022-08-17T16:50:40.534Z,3.35
2022-08-17T16:53:18.094Z,2.80
2022-08-17T16:55:48.158Z,2.88
2022-08-17T16:58:17.039Z,2.67
2022-08-17T17:00:48.975Z,5.15
2022-08-17T17:03:21.208Z,2.70
2022-08-17T17:05:57.981Z,2.90
2022-08-17T17:08:30.403Z,2.72
2022-08-17T17:11:09.212Z,3.97
2022-08-17T17:14:01.551Z,2.95
2022-08-17T17:16:48.897Z,3.88
2022-08-17T17:19:26.322Z,4.78
2022-08-17T17:22:23.429Z,5.57
2022-08-17T17:25:03.846Z,4.57
2022-08-17T17:27:43.666Z,4.18
2022-08-17T17:30:24.187Z,5.18
2022-08-17T17:33:06.645Z,5.05
2022-08-17T17:36:02.287Z,5.80
2022-08-17T17:38:42.265Z,5.90
2022-08-17T17:41:23.895Z,6.40
2022-08-17T17:44:05.192Z,6.88
2022-08-17T17:46:45.038Z,4.13
2022-08-17T17:49:14.426Z,5.20
2022-08-17T17:52:06.928Z,3.83
2022-08-17T17:55:25.202Z,4.10
2022-08-17T17:58:23.870Z,5.18
2022-08-17T18:01:26.547Z,6.00
2022-08-17T18:04:28.254Z,6.57
2022-08-17T18:07:12.388Z,4.47
2022-08-17T18:10:19.756Z,8.07
2022-08-17T18:13:41.368Z,10.17
2022-08-17T18:16:15.153Z,7.53
2022-08-17T18:18:50.014Z,18.40
2022-08-17T18:21:38.771Z,17.13
2022-08-17T18:24:10.615Z,15.43
2022-08-17T18:26:57.034Z,15.33
2022-08-17T18:29:51.021Z,10.83
2022-08-17T18:32:33.772Z,12.17
2022-08-17T18:35:10.625Z,9.13
2022-08-17T18:37:56.613Z,16.63
2022-08-17T18:40:36.241Z,19.40
2022-08-17T18:43:06.728Z,19.40
2022-08-17T18:45:52.510Z,15.17
2022-08-17T18:48:36.863Z,17.67
2022-08-17T18:51:40.597Z,12.63
2022-08-17T18:54:21.595Z,11.50
2022-08-17T18:56:59.509Z,12.27
2022-08-17T18:59:45.177Z,10.33
2022-08-17T19:02:20.643Z,10.80
2022-08-17T19:04:59.955Z,16.87
2022-08-17T19:07:41.253Z,11.37
2022-08-17T19:10:46.330Z,11.63
2022-08-17T19:13:24.433Z,11.77
2022-08-17T19:16:31.389Z,12.87
2022-08-17T19:19:11.141Z,11.87
2022-08-17T19:21:45.142Z,7.97
2022-08-17T19:24:21.236Z,12.33
2022-08-17T19:27:17.901Z,11.10
2022-08-17T19:30:07.831Z,7.20
2022-08-17T19:32:37.206Z,11.67
2022-08-17T19:35:16.589Z,10.00
2022-08-17T19:38:12.954Z,12.60
2022-08-17T19:40:52.670Z,14.57
2022-08-17T19:43:56.757Z,14.40
2022-08-17T19:46:50.444Z,13.10
2022-08-17T19:49:33.438Z,10.17
2022-08-17T19:52:52.793Z,4.27
2022-08-17T19:55:52.205Z,9.53
2022-08-17T19:58:37.898Z,8.77
2022-08-17T20:01:14.136Z,9.13
2022-08-17T20:03:57.236Z,5.80
2022-08-17T20:06:27.297Z,5.33
2022-08-17T20:08:58.508Z,12.17
2022-08-17T20:12:00.416Z,7.00
2022-08-17T20:14:57.261Z,10.53
2022-08-17T20:17:33.170Z,8.37
2022-08-17T20:20:23.338Z,10.67
2022-08-17T20:23:07.078Z,12.43
2022-08-17T20:25:48.690Z,11.07
2022-08-17T20:28:17.402Z,8.13
2022-08-17T20:30:50.787Z,7.17
2022-08-17T20:33:31.299Z,7.50
2022-08-17T20:36:32.322Z,8.43
2022-08-17T20:39:00.966Z,7.03
2022-08-17T20:41:32.005Z,5.80
2022-08-17T20:44:00.427Z,8.27
2022-08-17T20:46:40.223Z,8.53
2022-08-17T20:50:09.767Z,6.93
2022-08-17T20:52:52.921Z,6.10
2022-08-17T20:55:36.370Z,6.63
2022-08-17T20:58:31.129Z,7.53
2022-08-17T21:01:01.442Z,11.50
2022-08-17T21:03:50.330Z,6.47
2022-08-17T21:06:22.501Z,8.63
2022-08-17T21:09:00.541Z,7.53
2022-08-17T21:11:57.356Z,6.50
2022-08-17T21:14:41.090Z,7.40
2022-08-17T21:17:39.759Z,6.47
2022-08-17T21:20:15.777Z,7.20
2022-08-17T21:23:02.624Z,6.83
2022-08-17T21:26:08.034Z,6.30
2022-08-17T21:29:29.759Z,5.90
2022-08-17T21:32:05.433Z,10.43
2022-08-17T21:34:42.530Z,9.00
2022-08-17T21:37:35.020Z,6.77
2022-08-17T21:40:12.368Z,7.00
2022-08-17T21:42:53.772Z,5.93
2022-08-17T21:45:35.707Z,5.93
2022-08-17T21:48:24.095Z,8.80
2022-08-17T21:51:20.595Z,7.07
2022-08-17T21:53:58.072Z,8.77
2022-08-17T21:56:37.774Z,7.03
2022-08-17T21:59:40.404Z,5.67
2022-08-17T22:02:22.156Z,9.77
2022-08-17T22:05:37.328Z,9.17
2022-08-17T22:08:16.595Z,7.53
2022-08-17T22:10:49.190Z,7.73
2022-08-17T22:13:29.352Z,7.57
2022-08-17T22:16:28.671Z,7.70
2022-08-17T22:18:59.214Z,8.57
2022-08-17T22:21:28.103Z,7.43
2022-08-17T22:24:08.380Z,7.87
2022-08-17T22:27:03.310Z,7.53
2022-08-17T22:29:57.962Z,7.57
2022-08-17T22:32:45.673Z,10.97
2022-08-17T22:35:42.249Z,6.73
2022-08-17T22:38:22.257Z,9.70
2022-08-17T22:40:54.587Z,8.13
2022-08-17T22:43:28.496Z,7.47
2022-08-17T22:46:01.012Z,8.30
2022-08-17T22:48:31.399Z,6.97
2022-08-17T22:51:20.635Z,8.40
2022-08-17T22:54:18.161Z,7.60
2022-08-17T22:57:19.043Z,6.60
2022-08-17T22:59:55.040Z,5.43
2022-08-17T23:02:31.219Z,4.87
2022-08-17T23:05:13.083Z,7.23
2022-08-17T23:07:43.304Z,7.60
2022-08-17T23:10:12.997Z,7.77
2022-08-17T23:12:41.373Z,5.80
2022-08-17T23:15:16.615Z,6.10
2022-08-17T23:17:45.312Z,6.50
2022-08-17T23:20:16.075Z,6.40
2022-08-17T23:22:51.444Z,7.07
2022-08-17T23:25:31.017Z,6.47
2022-08-17T23:28:01.571Z,8.30
2022-08-17T23:30:32.231Z,7.40
2022-08-17T23:33:06.438Z,5.83
2022-08-17T23:35:40.405Z,6.03
2022-08-17T23:38:14.272Z,5.73
2022-08-17T23:40:42.889Z,6.20
2022-08-17T23:43:23.937Z,5.50
2022-08-17T23:45:58.633Z,6.60
2022-08-17T23:48:35.938Z,5.83
2022-08-17T23:51:11.190Z,8.17
2022-08-17T23:53:47.255Z,6.47
2022-08-17T23:56:16.429Z,6.00
2022-08-17T23:58:45.865Z,6.67
